Map

Track Data

SID SEASON NUMBER BASIN SUBBASIN NAME ISO_TIME NATURE LAT LON WMO_WIND WMO_PRES WMO_AGENCY TRACK_TYPE DIST2LAND LANDFALL IFLAG USA_AGENCY USA_ATCF_ID USA_LAT USA_LON USA_RECORD USA_STATUS USA_WIND USA_PRES USA_SSHS USA_R34_NE USA_R34_SE USA_R34_SW USA_R34_NW USA_R50_NE USA_R50_SE USA_R50_SW USA_R50_NW USA_R64_NE USA_R64_SE USA_R64_SW USA_R64_NW USA_POCI USA_ROCI USA_RMW USA_EYE TOKYO_LAT TOKYO_LON TOKYO_GRADE TOKYO_WIND TOKYO_PRES TOKYO_R50_DIR TOKYO_R50_LONG TOKYO_R50_SHORT TOKYO_R30_DIR TOKYO_R30_LONG TOKYO_R30_SHORT TOKYO_LAND CMA_LAT CMA_LON CMA_CAT CMA_WIND CMA_PRES HKO_LAT HKO_LON HKO_CAT HKO_WIND HKO_PRES NEWDELHI_LAT NEWDELHI_LON NEWDELHI_GRADE NEWDELHI_WIND NEWDELHI_PRES NEWDELHI_CI NEWDELHI_DP NEWDELHI_POCI REUNION_LAT REUNION_LON REUNION_TYPE REUNION_WIND REUNION_PRES REUNION_TNUM REUNION_CI REUNION_RMW REUNION_R34_NE REUNION_R34_SE REUNION_R34_SW REUNION_R34_NW REUNION_R50_NE REUNION_R50_SE REUNION_R50_SW REUNION_R50_NW REUNION_R64_NE REUNION_R64_SE REUNION_R64_SW REUNION_R64_NW BOM_LAT BOM_LON BOM_TYPE BOM_WIND BOM_PRES BOM_TNUM BOM_CI BOM_RMW BOM_R34_NE BOM_R34_SE BOM_R34_SW BOM_R34_NW BOM_R50_NE BOM_R50_SE BOM_R50_SW BOM_R50_NW BOM_R64_NE BOM_R64_SE BOM_R64_SW BOM_R64_NW BOM_ROCI BOM_POCI BOM_EYE BOM_POS_METHOD BOM_PRES_METHOD NADI_LAT NADI_LON NADI_CAT NADI_WIND NADI_PRES WELLINGTON_LAT WELLINGTON_LON WELLINGTON_WIND WELLINGTON_PRES DS824_LAT DS824_LON DS824_STAGE DS824_WIND DS824_PRES TD9636_LAT TD9636_LON TD9636_STAGE TD9636_WIND TD9636_PRES TD9635_LAT TD9635_LON TD9635_WIND TD9635_PRES TD9635_ROCI NEUMANN_LAT NEUMANN_LON NEUMANN_CLASS NEUMANN_WIND NEUMANN_PRES MLC_LAT MLC_LON MLC_CLASS MLC_WIND MLC_PRES USA_GUST BOM_GUST BOM_GUST_PER REUNION_GUST REUNION_GUST_PER USA_SEAHGT USA_SEARAD_NE USA_SEARAD_SE USA_SEARAD_SW USA_SEARAD_NW STORM_SPEED STORM_DIR
1985261N13243 1985 90 EP MM VIVIAN 1985-09-18 06:00:00 TS 13.3000 -116.700 25 hurdat_epa main 1285 1272 O_________O___ hurdat_epa EP201985 13.3000 -116.700 TD 25 -1 13.3000 -116.700 1 25 6 322
1985261N13243 1985 90 EP MM VIVIAN 1985-09-18 09:00:00 TS 13.5469 -116.897 main 1278 1263 P_________P___ EP201985 13.5450 -116.895 TD 25 -1 13.5526 -116.903 1 25 6 322
1985261N13243 1985 90 EP MM VIVIAN 1985-09-18 12:00:00 TS 13.8000 -117.100 25 hurdat_epa main 1263 1251 O_________O___ hurdat_epa EP201985 13.8000 -117.100 TD 25 -1 13.8000 -117.100 1 25 7 322
1985261N13243 1985 90 EP MM VIVIAN 1985-09-18 15:00:00 TS 14.0579 -117.307 main 1249 1244 P_________P___ EP201985 14.0650 -117.315 TD 27 -1 14.0366 -117.283 1 26 6 322
1985261N13243 1985 90 EP MM VIVIAN 1985-09-18 18:00:00 TS 14.2886 -117.487 30 hurdat_epa main 1244 1233 O_________P___ hurdat_epa EP201985 14.3000 -117.500 TD 30 -1 14.2545 -117.448 1 27 5 324
1985261N13243 1985 90 EP MM VIVIAN 1985-09-18 21:00:00 TS 14.4656 -117.614 main 1233 1232 P_________P___ EP201985 14.4725 -117.623 TD 30 -1 14.4452 -117.588 1 28 4 327
1985261N13243 1985 90 EP MM VIVIAN 1985-09-19 00:00:00 TS 14.6000 -117.700 30 hurdat_epa main 1232 1223 O_________O___ hurdat_epa EP201985 14.6000 -117.700 TD 30 -1 14.6000 -117.700 1 30 3 330
1985261N13243 1985 90 EP MM VIVIAN 1985-09-19 03:00:00 TS 14.7140 -117.762 main 1230 1221 P_________P___ EP201985 14.7150 -117.758 TD 30 -1 14.7109 -117.775 1 30 2 332
1985261N13243 1985 90 EP MM VIVIAN 1985-09-19 06:00:00 TS 14.7969 -117.806 30 hurdat_epa main 1221 1213 O_________P___ hurdat_epa EP201985 14.8000 -117.800 TD 30 -1 14.7874 -117.823 1 30 2 327
1985261N13243 1985 90 EP MM VIVIAN 1985-09-19 09:00:00 TS 14.8544 -117.852 main 1220 1220 P_________P___ EP201985 14.8575 -117.850 TD 30 -1 14.8453 -117.859 1 30 1 319
1985261N13243 1985 90 EP MM VIVIAN 1985-09-19 12:00:00 TS 14.9000 -117.900 30 hurdat_epa main 1220 1212 O_________O___ hurdat_epa EP201985 14.9000 -117.900 TD 30 -1 14.9000 -117.900 1 30 1 320
1985261N13243 1985 90 EP MM VIVIAN 1985-09-19 15:00:00 TS 14.9547 -117.948 main 1212 1212 P_________P___ EP201985 14.9425 -117.943 TD 30 -1 14.9912 -117.964 1 31 2 319
1985261N13243 1985 90 EP MM VIVIAN 1985-09-19 18:00:00 TS 15.0200 -118.009 30 hurdat_epa main 1219 1211 O_________P___ hurdat_epa EP201985 15.0000 -118.000 TD 30 -1 15.0800 -118.035 1 32 2 319
1985261N13243 1985 90 EP MM VIVIAN 1985-09-19 21:00:00 TS 15.1191 -118.098 main 1218 1210 P_________P___ EP201985 15.1075 -118.092 TD 32 -1 15.1537 -118.114 1 33 3 314
1985261N13243 1985 90 EP MM VIVIAN 1985-09-20 00:00:00 TS 15.2000 -118.200 35 hurdat_epa main 1217 1217 O_________O___ hurdat_epa EP201985 15.2000 -118.200 TS 35 0 15.2000 -118.200 2 35 2 298
1985261N13243 1985 90 EP MM VIVIAN 1985-09-20 03:00:00 TS 15.2198 -118.299 main 1225 1225 P_________P___ EP201985 15.2225 -118.300 TS 35 0 15.2119 -118.297 2 35 2 270
1985261N13243 1985 90 EP MM VIVIAN 1985-09-20 06:00:00 TS 15.1988 -118.400 35 hurdat_epa main 1232 1232 O_________P___ hurdat_epa EP201985 15.2000 -118.400 TS 35 0 15.1950 -118.400 2 35 2 252
1985261N13243 1985 90 EP MM VIVIAN 1985-09-20 09:00:00 TS 15.1570 -118.501 main 1240 1240 P_________P___ EP201985 15.1575 -118.500 TS 35 0 15.1556 -118.503 2 35 2 243
1985261N13243 1985 90 EP MM VIVIAN 1985-09-20 12:00:00 TS 15.1000 -118.600 35 hurdat_epa main 1255 1255 O_________O___ hurdat_epa EP201985 15.1000 -118.600 TS 35 0 15.1000 -118.600 2 35 2 242
1985261N13243 1985 90 EP MM VIVIAN 1985-09-20 15:00:00 TS 15.0540 -118.703 main 1263 1263 P_________P___ EP201985 15.0575 -118.708 TS 35 0 15.0434 -118.690 2 35 2 240
1985261N13243 1985 90 EP MM VIVIAN 1985-09-20 18:00:00 TS 14.9931 -118.793 35 hurdat_epa main 1278 1278 O_________P___ hurdat_epa EP201985 15.0000 -118.800 TS 35 0 14.9725 -118.773 2 35 2 225
1985261N13243 1985 90 EP MM VIVIAN 1985-09-20 21:00:00 TS 14.9032 -118.854 main 1294 1294 P_________P___ EP201985 14.9075 -118.857 TS 35 0 14.8903 -118.843 2 35 2 209
1985261N13243 1985 90 EP MM VIVIAN 1985-09-21 00:00:00 TS 14.8000 -118.900 35 hurdat_epa main 1302 1302 O_________O___ hurdat_epa EP201985 14.8000 -118.900 TS 35 0 14.8000 -118.900 2 35 2 206
1985261N13243 1985 90 EP MM VIVIAN 1985-09-21 03:00:00 TS 14.7017 -118.957 main 1317 1317 P_________P___ EP201985 14.7000 -118.958 TS 35 0 14.7068 -118.955 2 33 2 206
1985261N13243 1985 90 EP MM VIVIAN 1985-09-21 06:00:00 TS 14.6017 -118.999 35 hurdat_epa main 1325 1325 O_________P___ hurdat_epa EP201985 14.6000 -119.000 TS 35 0 14.6068 -118.994 2 32 2 196
1985261N13243 1985 90 EP MM VIVIAN 1985-09-21 09:00:00 TS 14.5008 -119.014 main 1333 1333 P_________P___ EP201985 14.5000 -119.015 TS 32 -1 14.5034 -119.011 2 31 2 181
1985261N13243 1985 90 EP MM VIVIAN 1985-09-21 12:00:00 TS 14.4000 -119.000 30 hurdat_epa main 1342 1342 O_________O___ hurdat_epa EP201985 14.4000 -119.000 TD 30 -1 14.4000 -119.000 1 30 2 164
1985261N13243 1985 90 EP MM VIVIAN 1985-09-21 15:00:00 TS 14.2998 -118.958 main 1350 1342 P_________P___ EP201985 14.3000 -118.957 TD 27 -1 14.2992 -118.959 1 27 2 153
1985261N13243 1985 90 EP MM VIVIAN 1985-09-21 18:00:00 TS 14.2000 -118.900 25 hurdat_epa main 1351 O_________O___ hurdat_epa EP201985 14.2000 -118.900 TD 25 -1 14.2000 -118.900 1 25 2 153

About IBTrACS Database

This database is a web-friendly format of International Best Track Archive for Climate Stewardship (IBTrACS), a global best track data archive curated by NOAA dating back to 1842.

Updated: 2021-11-26